createdAt,value
2019-05-03T00:02:33.560Z,11.58
2019-05-03T00:05:23.228Z,11.53
2019-05-03T00:08:02.036Z,11.45
2019-05-03T00:10:34.448Z,11.47
2019-05-03T00:13:06.727Z,11.56
2019-05-03T00:15:52.211Z,11.69
2019-05-03T00:18:24.662Z,11.62
2019-05-03T00:20:55.927Z,11.66
2019-05-03T00:23:27.763Z,11.60
2019-05-03T00:25:59.607Z,11.61
2019-05-03T00:28:32.194Z,11.63
2019-05-03T00:31:03.587Z,11.64
2019-05-03T00:33:37.170Z,11.60
2019-05-03T00:36:37.023Z,11.67
2019-05-03T00:39:32.485Z,11.59
2019-05-03T00:42:04.915Z,11.50
2019-05-03T00:44:36.739Z,11.18
2019-05-03T00:47:07.924Z,11.21
2019-05-03T00:49:39.691Z,10.95
2019-05-03T00:52:11.772Z,11.00
2019-05-03T00:54:43.603Z,10.91
2019-05-03T00:57:14.785Z,10.91
2019-05-03T00:59:46.703Z,10.73
2019-05-03T01:02:18.751Z,10.70
2019-05-03T01:04:51.854Z,10.67
2019-05-03T01:07:23.843Z,10.62
2019-05-03T01:09:55.059Z,10.68
2019-05-03T01:12:26.836Z,10.61
2019-05-03T01:15:02.066Z,10.56
2019-05-03T01:17:35.767Z,10.46
2019-05-03T01:20:07.511Z,10.36
2019-05-03T01:22:38.717Z,10.26
2019-05-03T01:25:12.086Z,10.11
2019-05-03T01:27:45.211Z,10.00
2019-05-03T01:30:17.246Z,10.06
2019-05-03T01:32:49.178Z,9.87
2019-05-03T01:35:21.917Z,9.94
2019-05-03T01:37:53.246Z,9.96
2019-05-03T01:40:24.422Z,9.85
2019-05-03T01:42:56.317Z,9.63
2019-05-03T01:45:28.378Z,9.74
2019-05-03T01:48:06.318Z,9.62
2019-05-03T01:50:48.294Z,9.50
2019-05-03T01:53:21.774Z,9.58
2019-05-03T01:55:53.660Z,9.44
2019-05-03T01:58:25.329Z,9.40
2019-05-03T02:01:04.017Z,9.39
2019-05-03T02:03:44.735Z,9.29
2019-05-03T02:06:15.861Z,9.23
2019-05-03T02:08:47.706Z,9.32
2019-05-03T02:11:19.594Z,9.24
2019-05-03T02:13:52.219Z,9.36
2019-05-03T02:16:24.179Z,9.24
2019-05-03T02:18:55.994Z,9.20
2019-05-03T02:21:27.184Z,9.10
2019-05-03T02:23:58.979Z,9.11
2019-05-03T02:26:31.777Z,8.96
2019-05-03T02:29:03.732Z,8.89
2019-05-03T02:31:34.915Z,8.80
2019-05-03T02:34:06.662Z,8.77
2019-05-03T02:36:37.869Z,8.73
2019-05-03T02:39:13.609Z,8.79
2019-05-03T02:41:48.718Z,8.69
2019-05-03T02:44:21.306Z,8.63
2019-05-03T02:47:10.514Z,8.63
2019-05-03T02:49:52.797Z,8.70
2019-05-03T02:52:37.752Z,8.76
2019-05-03T02:55:11.837Z,8.81
2019-05-03T02:57:46.662Z,8.80
2019-05-03T03:00:19.714Z,8.75
2019-05-03T03:02:51.875Z,8.73
2019-05-03T03:05:25.286Z,8.75
2019-05-03T03:07:57.865Z,8.73
2019-05-03T03:10:30.267Z,8.63
2019-05-03T03:13:05.930Z,8.65
2019-05-03T03:15:40.066Z,8.69
2019-05-03T03:18:15.638Z,8.61
2019-05-03T03:20:50.867Z,8.57
2019-05-03T03:23:26.485Z,8.45
2019-05-03T03:26:01.027Z,8.46
2019-05-03T03:28:37.084Z,8.41
2019-05-03T03:32:09.322Z,8.42
2019-05-03T03:34:53.401Z,8.41
2019-05-03T03:37:18.638Z,8.39
2019-05-03T03:39:50.931Z,8.32
2019-05-03T03:42:25.129Z,8.26
2019-05-03T03:44:58.482Z,8.30
2019-05-03T03:47:35.865Z,8.38
2019-05-03T03:50:06.525Z,8.30
2019-05-03T03:52:42.186Z,8.29
2019-05-03T03:55:15.964Z,8.33
2019-05-03T03:57:47.906Z,8.35
2019-05-03T04:00:19.949Z,8.36
2019-05-03T04:02:51.737Z,8.41
2019-05-03T04:05:25.365Z,8.41
2019-05-03T04:07:58.213Z,8.39
2019-05-03T04:10:31.877Z,8.42
2019-05-03T04:13:06.858Z,8.44
2019-05-03T04:15:55.956Z,8.38
2019-05-03T04:18:55.209Z,8.47
2019-05-03T04:21:28.585Z,8.56
2019-05-03T04:24:01.197Z,8.67
2019-05-03T04:26:35.616Z,8.64
2019-05-03T04:29:07.388Z,8.57
2019-05-03T04:31:39.372Z,8.61
2019-05-03T04:34:11.422Z,8.60
2019-05-03T04:36:45.989Z,8.66
2019-05-03T04:39:20.207Z,8.74
2019-05-03T04:41:50.918Z,8.93
2019-05-03T04:44:22.785Z,9.01
2019-05-03T04:46:56.132Z,9.17
2019-05-03T04:49:29.889Z,9.30
2019-05-03T04:52:01.694Z,9.24
2019-05-03T04:54:41.820Z,9.29
2019-05-03T04:57:15.829Z,9.23
2019-05-03T04:59:46.866Z,9.13
2019-05-03T05:02:18.837Z,9.18
2019-05-03T05:04:50.046Z,9.16
2019-05-03T05:07:21.862Z,9.29
2019-05-03T05:09:56.229Z,9.19
2019-05-03T05:12:27.367Z,9.14
2019-05-03T05:14:59.187Z,9.16
2019-05-03T05:17:38.000Z,9.16
2019-05-03T05:20:21.101Z,9.15
2019-05-03T05:22:54.390Z,9.14
2019-05-03T05:25:27.389Z,9.15
2019-05-03T05:28:30.270Z,9.11
2019-05-03T05:31:02.145Z,9.06
2019-05-03T05:33:35.383Z,9.02
2019-05-03T05:36:07.548Z,9.07
2019-05-03T05:38:39.493Z,9.00
2019-05-03T05:41:11.282Z,9.02
2019-05-03T05:43:44.702Z,9.04
2019-05-03T05:46:17.404Z,9.18
2019-05-03T05:48:50.351Z,9.22
2019-05-03T05:51:22.189Z,9.22
2019-05-03T05:53:54.897Z,9.23
2019-05-03T05:57:00.780Z,9.32
2019-05-03T05:59:56.990Z,9.42
2019-05-03T06:02:28.937Z,9.41
2019-05-03T06:05:00.843Z,9.28
2019-05-03T06:07:57.576Z,9.39
2019-05-03T06:10:51.342Z,9.45
2019-05-03T06:13:48.141Z,9.33
2019-05-03T06:16:28.797Z,9.29
2019-05-03T06:19:05.769Z,9.09
2019-05-03T06:21:44.799Z,8.81
2019-05-03T06:24:24.897Z,8.92
2019-05-03T06:27:04.719Z,9.30
2019-05-03T06:29:36.441Z,9.72
2019-05-03T06:32:16.149Z,10.17
2019-05-03T06:34:47.995Z,10.32
2019-05-03T06:37:21.558Z,10.51
2019-05-03T06:39:54.423Z,10.48
2019-05-03T06:42:26.285Z,10.66
2019-05-03T06:44:59.753Z,10.28
2019-05-03T06:47:31.844Z,9.96
2019-05-03T06:50:05.395Z,9.94
2019-05-03T06:52:37.412Z,10.10
2019-05-03T06:55:10.864Z,10.06
2019-05-03T06:57:49.382Z,9.93
2019-05-03T07:00:50.507Z,10.00
2019-05-03T07:03:35.463Z,10.00
2019-05-03T07:06:40.386Z,10.16
2019-05-03T07:09:48.102Z,10.31
2019-05-03T07:12:19.987Z,9.90
2019-05-03T07:14:51.903Z,9.70
2019-05-03T07:17:24.823Z,9.51
2019-05-03T07:19:56.218Z,9.41
2019-05-03T07:22:29.049Z,9.68
2019-05-03T07:25:00.930Z,10.00
2019-05-03T07:27:34.970Z,10.69
2019-05-03T07:30:07.632Z,11.02
2019-05-03T07:32:41.190Z,10.93
2019-05-03T07:35:14.779Z,10.48
2019-05-03T07:37:46.742Z,10.46
2019-05-03T07:40:18.603Z,10.28
2019-05-03T07:42:50.531Z,10.60
2019-05-03T07:45:22.639Z,10.74
2019-05-03T07:47:55.888Z,10.40
2019-05-03T07:50:28.215Z,10.55
2019-05-03T07:53:00.243Z,10.38
2019-05-03T07:55:49.759Z,10.13
2019-05-03T07:58:22.549Z,9.98
2019-05-03T08:01:05.896Z,10.34
2019-05-03T08:03:29.737Z,10.59
2019-05-03T08:06:01.574Z,10.65
2019-05-03T08:08:35.261Z,10.56
2019-05-03T08:11:07.151Z,10.40
2019-05-03T08:13:39.044Z,10.44
2019-05-03T08:16:10.903Z,10.75
2019-05-03T08:18:42.763Z,10.80
2019-05-03T08:21:14.995Z,10.55
2019-05-03T08:23:47.023Z,10.23
2019-05-03T08:26:18.878Z,10.04
2019-05-03T08:28:50.758Z,9.91
2019-05-03T08:31:37.047Z,10.24
2019-05-03T08:34:36.727Z,10.40
2019-05-03T08:37:10.755Z,10.67
2019-05-03T08:39:44.655Z,10.88
2019-05-03T08:42:26.925Z,10.86
2019-05-03T08:44:58.861Z,10.60
2019-05-03T08:47:30.699Z,10.64
2019-05-03T08:50:02.741Z,10.78
2019-05-03T08:52:34.858Z,10.75
2019-05-03T08:55:07.129Z,10.55
2019-05-03T08:57:39.031Z,10.51
2019-05-03T09:00:16.192Z,10.58
2019-05-03T09:02:48.031Z,10.45
2019-05-03T09:05:20.020Z,10.54
2019-05-03T09:07:51.256Z,10.77
2019-05-03T09:10:35.202Z,11.37
2019-05-03T09:13:08.036Z,11.85
2019-05-03T09:15:40.249Z,11.98
2019-05-03T09:18:15.107Z,12.07
2019-05-03T09:20:45.156Z,11.92
2019-05-03T09:23:17.135Z,12.32
2019-05-03T09:25:49.117Z,11.94
2019-05-03T09:28:20.953Z,11.47
2019-05-03T09:30:54.723Z,11.14
2019-05-03T09:33:26.499Z,11.39
2019-05-03T09:35:58.364Z,11.85
2019-05-03T09:38:30.227Z,12.13
2019-05-03T09:41:02.079Z,11.99
2019-05-03T09:43:35.707Z,11.37
2019-05-03T09:46:07.762Z,11.28
2019-05-03T09:48:38.959Z,11.68
2019-05-03T09:51:10.746Z,12.52
2019-05-03T09:53:49.477Z,12.84
2019-05-03T09:56:53.610Z,12.93
2019-05-03T09:59:14.760Z,12.92
2019-05-03T10:01:46.844Z,12.09
2019-05-03T10:04:18.787Z,11.73
2019-05-03T10:06:50.756Z,11.83
2019-05-03T10:09:22.580Z,12.01
2019-05-03T10:11:55.182Z,12.34
2019-05-03T10:14:27.323Z,12.58
2019-05-03T10:17:18.011Z,12.30
2019-05-03T10:19:50.009Z,11.95
2019-05-03T10:22:27.830Z,11.81
2019-05-03T10:24:59.650Z,11.78
2019-05-03T10:27:36.990Z,11.55
2019-05-03T10:30:12.914Z,11.74
2019-05-03T10:32:45.408Z,11.88
2019-05-03T10:35:17.789Z,11.90
2019-05-03T10:37:49.720Z,12.32
2019-05-03T10:40:28.284Z,12.28
2019-05-03T10:42:59.565Z,12.60
2019-05-03T10:45:35.540Z,13.65
2019-05-03T10:48:12.335Z,13.87
2019-05-03T10:50:44.322Z,13.85
2019-05-03T10:53:30.256Z,13.54
2019-05-03T10:56:23.078Z,12.55
2019-05-03T10:58:56.966Z,12.13
2019-05-03T11:01:54.540Z,12.11
2019-05-03T11:04:27.614Z,11.99
2019-05-03T11:06:59.467Z,12.06
2019-05-03T11:09:31.316Z,12.32
2019-05-03T11:12:05.343Z,12.70
2019-05-03T11:14:38.631Z,12.91
2019-05-03T11:17:10.458Z,12.52
2019-05-03T11:19:42.308Z,12.57
2019-05-03T11:22:14.669Z,12.57
2019-05-03T11:24:46.846Z,12.83
2019-05-03T11:27:24.714Z,13.03
2019-05-03T11:29:59.151Z,13.28
2019-05-03T11:32:38.932Z,13.42
2019-05-03T11:35:25.239Z,13.67
2019-05-03T11:38:21.976Z,13.31
2019-05-03T11:40:55.823Z,13.23
2019-05-03T11:43:26.783Z,12.96
2019-05-03T11:45:58.646Z,12.89
2019-05-03T11:48:29.851Z,13.20
2019-05-03T11:51:01.661Z,14.18
2019-05-03T11:53:35.620Z,14.65
2019-05-03T11:56:05.716Z,14.83
2019-05-03T11:58:36.899Z,14.44
2019-05-03T12:01:25.405Z,14.09
2019-05-03T12:04:00.327Z,14.02
2019-05-03T12:06:32.230Z,14.28
2019-05-03T12:09:05.657Z,14.50
2019-05-03T12:11:39.959Z,14.52
2019-05-03T12:14:15.225Z,14.14
2019-05-03T12:17:16.158Z,13.57
2019-05-03T12:19:31.019Z,13.31
2019-05-03T12:22:00.178Z,13.56
2019-05-03T12:24:32.596Z,14.13
2019-05-03T12:27:04.732Z,14.41
2019-05-03T12:29:36.653Z,14.90
2019-05-03T12:32:09.683Z,15.06
2019-05-03T12:34:41.037Z,14.96
2019-05-03T12:37:12.911Z,14.64
2019-05-03T12:39:44.798Z,14.15
2019-05-03T12:42:18.714Z,13.97
2019-05-03T12:44:49.475Z,13.73
2019-05-03T12:47:22.351Z,13.34
2019-05-03T12:49:55.883Z,12.87
2019-05-03T12:52:28.518Z,12.47
2019-05-03T12:55:00.722Z,12.36
2019-05-03T12:57:34.472Z,12.57
2019-05-03T13:00:25.679Z,13.03
2019-05-03T13:03:10.254Z,13.69
2019-05-03T13:05:42.079Z,14.19
2019-05-03T13:08:42.777Z,13.98
2019-05-03T13:11:14.755Z,14.11
2019-05-03T13:13:46.694Z,14.15
2019-05-03T13:16:20.829Z,14.24
2019-05-03T13:18:55.149Z,14.47
2019-05-03T13:21:26.309Z,14.59
2019-05-03T13:23:58.281Z,15.09
2019-05-03T13:26:29.481Z,15.27
2019-05-03T13:29:01.305Z,15.24
2019-05-03T13:31:34.651Z,15.01
2019-05-03T13:34:06.743Z,15.29
2019-05-03T13:36:38.927Z,15.06
2019-05-03T13:39:14.163Z,14.90
2019-05-03T13:41:45.527Z,14.71
2019-05-03T13:44:18.805Z,14.71
2019-05-03T13:46:51.763Z,14.63
2019-05-03T13:49:26.398Z,14.81
2019-05-03T13:51:58.522Z,14.90
2019-05-03T13:54:29.734Z,15.41
2019-05-03T13:57:00.817Z,15.24
2019-05-03T13:59:32.801Z,15.26
2019-05-03T14:02:15.212Z,15.37
2019-05-03T14:04:49.337Z,15.26
2019-05-03T14:07:11.149Z,15.09
2019-05-03T14:09:45.126Z,14.64
2019-05-03T14:12:16.519Z,14.47
2019-05-03T14:14:55.746Z,14.30
2019-05-03T14:17:29.390Z,14.22
2019-05-03T14:20:17.924Z,14.26
2019-05-03T14:22:50.271Z,14.03
2019-05-03T14:25:22.168Z,14.12
2019-05-03T14:27:55.003Z,14.11
2019-05-03T14:30:26.966Z,14.31
2019-05-03T14:32:58.249Z,14.82
2019-05-03T14:35:30.076Z,15.10
2019-05-03T14:38:01.435Z,15.09
2019-05-03T14:40:33.305Z,15.24
2019-05-03T14:43:05.156Z,14.94
2019-05-03T14:45:37.021Z,15.35
2019-05-03T14:48:09.010Z,15.49
2019-05-03T14:50:40.357Z,15.30
2019-05-03T14:53:14.778Z,15.25
2019-05-03T14:56:01.870Z,15.26
2019-05-03T14:59:09.436Z,15.58
2019-05-03T15:01:49.253Z,15.02
2019-05-03T15:04:21.364Z,14.58
2019-05-03T15:06:52.562Z,14.14
2019-05-03T15:09:25.155Z,13.84
2019-05-03T15:11:58.250Z,13.82
2019-05-03T15:14:30.604Z,14.00
2019-05-03T15:17:01.959Z,14.17
2019-05-03T15:19:34.877Z,13.95
2019-05-03T15:22:07.228Z,13.82
2019-05-03T15:24:39.557Z,13.65
2019-05-03T15:27:10.752Z,13.68
2019-05-03T15:29:44.791Z,13.76
2019-05-03T15:32:16.692Z,13.76
2019-05-03T15:34:49.004Z,13.89
2019-05-03T15:37:21.394Z,13.87
2019-05-03T15:39:55.068Z,13.87
2019-05-03T15:42:27.308Z,13.83
2019-05-03T15:45:17.714Z,13.69
2019-05-03T15:48:10.701Z,13.55
2019-05-03T15:50:42.164Z,13.55
2019-05-03T15:53:15.174Z,13.72
2019-05-03T15:55:48.326Z,14.07
2019-05-03T15:58:19.481Z,13.83
2019-05-03T16:00:51.390Z,13.71
2019-05-03T16:03:30.766Z,13.80
2019-05-03T16:06:02.607Z,14.01
2019-05-03T16:08:34.570Z,14.02
2019-05-03T16:11:06.763Z,14.16
2019-05-03T16:13:38.366Z,14.13
2019-05-03T16:16:10.911Z,13.85
2019-05-03T16:18:44.768Z,13.75
2019-05-03T16:21:16.815Z,13.63
2019-05-03T16:23:49.736Z,13.48
2019-05-03T16:26:25.272Z,13.20
2019-05-03T16:29:04.695Z,13.38
2019-05-03T16:31:36.161Z,13.37
2019-05-03T16:34:07.819Z,13.35
2019-05-03T16:36:40.047Z,13.43
2019-05-03T16:39:31.528Z,13.69
2019-05-03T16:42:06.777Z,13.87
2019-05-03T16:44:37.252Z,13.75
2019-05-03T16:47:09.158Z,13.44
2019-05-03T16:49:42.287Z,13.41
2019-05-03T16:52:17.271Z,13.38
2019-05-03T16:54:47.761Z,13.11
2019-05-03T16:57:19.303Z,12.92
2019-05-03T16:59:55.013Z,12.65
2019-05-03T17:02:27.676Z,12.49
2019-05-03T17:05:07.490Z,12.40
2019-05-03T17:07:55.345Z,12.25
2019-05-03T17:10:31.761Z,12.06
2019-05-03T17:13:05.498Z,12.13
2019-05-03T17:15:36.787Z,12.07
2019-05-03T17:18:09.005Z,11.92
2019-05-03T17:20:42.759Z,11.95
2019-05-03T17:23:15.471Z,11.91
2019-05-03T17:25:47.740Z,11.88
2019-05-03T17:28:19.630Z,11.75
2019-05-03T17:30:50.865Z,11.76
2019-05-03T17:33:22.047Z,11.71
2019-05-03T17:35:54.456Z,11.63
2019-05-03T17:38:27.328Z,11.63
2019-05-03T17:41:21.579Z,11.66
2019-05-03T17:43:57.039Z,11.54
2019-05-03T17:46:28.849Z,11.61
2019-05-03T17:49:00.729Z,11.63
2019-05-03T17:51:57.596Z,11.59
2019-05-03T17:55:04.929Z,11.51
2019-05-03T17:57:55.579Z,11.54
2019-05-03T18:00:44.791Z,11.47
2019-05-03T18:03:17.058Z,11.45
2019-05-03T18:05:54.147Z,11.43
2019-05-03T18:08:37.560Z,11.34
2019-05-03T18:11:12.255Z,11.24
2019-05-03T18:13:44.600Z,11.16
2019-05-03T18:16:16.733Z,11.08
2019-05-03T18:18:49.069Z,11.02
2019-05-03T18:21:26.804Z,10.94
2019-05-03T18:23:58.347Z,10.85
2019-05-03T18:26:29.736Z,10.71
2019-05-03T18:29:01.812Z,10.55
2019-05-03T18:31:34.070Z,10.52
2019-05-03T18:34:18.582Z,10.42
2019-05-03T18:36:40.599Z,10.18
2019-05-03T18:39:14.689Z,10.18
2019-05-03T18:41:46.523Z,10.01
2019-05-03T18:44:46.495Z,9.93
2019-05-03T18:47:25.066Z,9.76
2019-05-03T18:49:56.700Z,9.50
2019-05-03T18:52:28.688Z,9.50
2019-05-03T18:55:00.806Z,9.54
2019-05-03T18:57:33.936Z,9.47
2019-05-03T19:00:08.092Z,9.41
2019-05-03T19:02:38.946Z,9.47
2019-05-03T19:05:11.738Z,9.66
2019-05-03T19:08:06.183Z,9.50
2019-05-03T19:10:49.880Z,9.45
2019-05-03T19:13:27.687Z,9.39
2019-05-03T19:16:01.174Z,9.31
2019-05-03T19:18:35.344Z,9.27
2019-05-03T19:21:06.813Z,9.21
2019-05-03T19:23:38.988Z,9.12
2019-05-03T19:26:11.207Z,9.05
2019-05-03T19:28:44.545Z,8.93
2019-05-03T19:31:15.910Z,8.83
2019-05-03T19:33:48.840Z,8.77
2019-05-03T19:36:21.066Z,8.73
2019-05-03T19:38:54.620Z,8.64
2019-05-03T19:41:26.546Z,8.58
2019-05-03T19:43:58.611Z,8.49
2019-05-03T19:46:29.879Z,8.53
2019-05-03T19:49:01.743Z,8.38
2019-05-03T19:51:34.669Z,8.22
2019-05-03T19:54:06.190Z,8.08
2019-05-03T19:56:39.010Z,7.93
2019-05-03T19:59:14.876Z,7.84
2019-05-03T20:02:04.890Z,7.79
2019-05-03T20:05:14.967Z,7.79
2019-05-03T20:08:20.394Z,7.81
2019-05-03T20:11:14.651Z,7.76
2019-05-03T20:13:46.802Z,7.93
2019-05-03T20:16:18.626Z,8.10
2019-05-03T20:18:50.483Z,8.23
2019-05-03T20:21:22.793Z,8.31
2019-05-03T20:23:55.513Z,8.36
2019-05-03T20:26:27.722Z,8.42
2019-05-03T20:28:59.661Z,8.47
2019-05-03T20:31:31.126Z,8.51
2019-05-03T20:34:05.290Z,8.53
2019-05-03T20:36:38.226Z,8.56
2019-05-03T20:39:09.888Z,8.51
2019-05-03T20:41:42.539Z,8.54
2019-05-03T20:44:27.227Z,8.55
2019-05-03T20:47:05.240Z,8.56
2019-05-03T20:49:37.389Z,8.55
2019-05-03T20:52:10.260Z,8.53
2019-05-03T20:54:42.267Z,8.52
2019-05-03T20:57:14.607Z,8.49
2019-05-03T20:59:51.682Z,8.51
2019-05-03T21:02:21.072Z,8.52
2019-05-03T21:04:54.660Z,8.56
2019-05-03T21:07:26.041Z,8.62
2019-05-03T21:09:58.017Z,8.62
2019-05-03T21:12:31.484Z,8.60
2019-05-03T21:15:05.019Z,8.62
2019-05-03T21:17:50.840Z,8.58
2019-05-03T21:20:53.148Z,8.57
2019-05-03T21:23:26.133Z,8.53
2019-05-03T21:26:12.498Z,8.51
2019-05-03T21:28:38.744Z,8.49
2019-05-03T21:31:10.617Z,8.44
2019-05-03T21:33:42.095Z,8.41
2019-05-03T21:36:15.112Z,8.33
2019-05-03T21:38:47.569Z,8.30
2019-05-03T21:41:19.844Z,8.29
2019-05-03T21:43:54.354Z,8.27
2019-05-03T21:46:35.127Z,8.26
2019-05-03T21:49:14.951Z,8.27
2019-05-03T21:51:47.544Z,8.27
2019-05-03T21:54:21.273Z,8.29
2019-05-03T21:56:55.083Z,8.30
2019-05-03T21:59:26.753Z,8.33
2019-05-03T22:01:59.162Z,8.38
2019-05-03T22:04:32.188Z,8.37
2019-05-03T22:07:05.241Z,8.38
2019-05-03T22:09:36.597Z,8.36
2019-05-03T22:12:07.643Z,8.31
2019-05-03T22:14:46.935Z,8.24
2019-05-03T22:17:40.061Z,8.10
2019-05-03T22:20:24.639Z,7.97
2019-05-03T22:23:04.541Z,7.85
2019-05-03T22:25:36.794Z,7.80
2019-05-03T22:28:08.058Z,7.73
2019-05-03T22:30:40.136Z,7.72
2019-05-03T22:33:11.423Z,7.75
2019-05-03T22:35:44.520Z,7.73
2019-05-03T22:38:16.680Z,7.71
2019-05-03T22:40:49.568Z,7.62
2019-05-03T22:43:20.784Z,7.51
2019-05-03T22:45:54.677Z,7.44
2019-05-03T22:48:26.124Z,7.41
2019-05-03T22:50:58.044Z,7.41
2019-05-03T22:53:29.917Z,7.35
2019-05-03T22:56:01.067Z,7.30
2019-05-03T22:58:32.218Z,7.34
2019-05-03T23:01:04.506Z,7.33
2019-05-03T23:03:44.882Z,7.35
2019-05-03T23:06:22.089Z,7.36
2019-05-03T23:08:50.465Z,7.38
2019-05-03T23:11:21.668Z,7.37
2019-05-03T23:14:04.905Z,7.35
2019-05-03T23:16:35.906Z,7.34
2019-05-03T23:19:07.924Z,7.32
2019-05-03T23:21:57.100Z,7.36
2019-05-03T23:24:28.288Z,7.39
2019-05-03T23:26:59.524Z,7.43
2019-05-03T23:29:31.625Z,7.50
2019-05-03T23:32:04.644Z,7.56
2019-05-03T23:34:36.171Z,7.64
2019-05-03T23:37:08.058Z,7.71
2019-05-03T23:39:40.020Z,7.77
2019-05-03T23:42:12.199Z,7.82
2019-05-03T23:44:45.475Z,7.86
2019-05-03T23:47:40.976Z,7.90
2019-05-03T23:50:19.354Z,7.93
2019-05-03T23:52:50.650Z,7.94
2019-05-03T23:55:38.936Z,7.94
2019-05-03T23:58:10.950Z,7.95
